Ana Sayfa
METAR-TAF:

METAR-TAF

Havaalanları :

Ottawa, Ontario, Kanada

Enlem: 45-19N, Boylam: 075-40W, yükseklik: 116 m

Güncel hava durumu gözlemi

Rapor saat 08:00 UTC de 57 dakika önce yapıldı.
Rüzgar güneydan 4 kt
Sıcaklık 13°C
Nem 82%
Basınç 1015 hPa
Görüş mesafesi: 24.1 km
8000 ft yükseklikte parçalı bulutlu
25000 ft yükseklikte parçalı çok bulutlu

METAR: CYOW 180800Z 19004KT 15SM SCT080 BKN250 13/10 A2997 RMK AC3CI4 SLP149

Saat: 04:57 (08:57 UTC)

Tahmin

Rapor saat 08:38 UTC de 19 dakika önce yapıldı.
Ayın 18'si saat 09 UTC'den ayın 19'si saat 06 UTC'ye kadar geçerli Tahmin
Rüzgar değişken yönden 3 kt
Görüş mesafesi: 10 km
8000 ft yükseklikte parçalı bulutlu
Ayın 18'si saat 2000 UTC'den
Rüzgar güneydan 6 kt
Görüş mesafesi: 10 km
6000 ft yükseklikte parçalı çok bulutlu

TAF: CYOW 180838Z 1809/1906 VRB03KT P6SM SCT080 FM182000 19006KT P6SM BKN060 RMK NXT FCST BY 181200Z

4.000'den fazla havaalanı için hava durumu gözlemleri ve tahminleri (METAR ve TAF raporları).

Kullanılabilir istasyonlar harita üzerinde sarı ve kırmızı noktalarla gösterilir.

İstasyonun adını görmek için fareyi noktanın üzerinde gezdirin.

Sonrasında hava gözlem ve tahminlerini görmek için tıklayın.

Haritayı değiştirmek için: yaklaştırmak için siyah artı işaretli yeşil düğmeye ve uzaklaştırmak için de eksi işaretli düğmeye hızla tıklayın; bitişik haritalar için yeşil okları kullanın.


METAR-TAF: